New Hartford, Iowa
Current Conditions -  °F | °C
As of 12:26 PM on Monday 26 Jan 2015 (Local Time) from KALO Reporting Station
Scattered Clouds Scattered Clouds  
Wind Chill: 33°   Ceiling: Unl
Heat Index: 39°   Visibility: 10mi
Dew Point: 34°   Wind: 9mph
Humidity: 82%   Direction: 250°WSW
Pressure: 29.76"   Gusts: NA
Location:  42.57°N, 92.62°W
Report Text: KALO 261826Z AUTO 25008KT 10SM SCT022 04/01 A2976 RMK AO2 T00390011
Loading
Personal Weather Stations






























Interactive Weather Map New forecast layout! Learn more

10-Day Weather Forecast

Advertisements
Track Severe Weather on mobile